Time;durP1;ratioP1;P1;durP2;ratioP2;P2;SDS_P1;SDS_P2;PMS_P1;PMS_P2;Temp;Humidity;BMP_temperature;BMP_pressure;BME280_temperature;BME280_humidity;BME280_pressure;Samples;Min_cycle;Max_cycle;Signal;HPM_P1;HPM_P2
2022/05/30 00:00:20;;;;;;;3.22;1.25;;;24.20;42.80;;;;;;5014612;28;20026;-53
2022/05/30 00:02:47;;;;;;;2.47;0.93;;;24.20;42.80;;;;;;5014021;28;20071;-54
2022/05/30 00:05:14;;;;;;;3.08;1.30;;;24.20;42.80;;;;;;5014518;28;20048;-53
2022/05/30 00:07:40;;;;;;;2.97;1.30;;;24.20;42.80;;;;;;5013783;28;20032;-53
2022/05/30 00:10:09;;;;;;;3.22;1.17;;;24.20;42.80;;;;;;5014458;28;20037;-54
2022/05/30 00:12:35;;;;;;;2.75;1.00;;;24.20;42.80;;;;;;5014206;28;20050;-54
2022/05/30 00:15:02;;;;;;;2.47;1.10;;;24.20;42.80;;;;;;5013665;28;20036;-53
2022/05/30 00:17:27;;;;;;;1.83;0.88;;;24.20;42.80;;;;;;5013218;28;20018;-53
2022/05/30 00:19:53;;;;;;;3.13;1.10;;;24.20;42.70;;;;;;5013984;28;20039;-53
2022/05/30 00:22:19;;;;;;;3.95;1.30;;;24.20;42.80;;;;;;5014555;28;20033;-53
2022/05/30 00:24:45;;;;;;;2.75;1.20;;;24.20;42.80;;;;;;5013831;28;20025;-53
2022/05/30 00:27:11;;;;;;;2.40;1.20;;;24.20;42.80;;;;;;5013914;28;20033;-54
2022/05/30 00:29:39;;;;;;;2.60;1.13;;;24.20;42.80;;;;;;5014043;28;20155;-53
2022/05/30 00:32:06;;;;;;;2.15;1.17;;;24.20;42.80;;;;;;5013092;28;20018;-54
2022/05/30 00:34:32;;;;;;;3.25;1.35;;;24.20;42.80;;;;;;5021957;28;20683;-53
2022/05/30 00:36:58;;;;;;;2.40;1.08;;;24.20;42.80;;;;;;5013463;28;20043;-53
2022/05/30 00:39:24;;;;;;;2.17;0.88;;;24.20;42.80;;;;;;5013849;28;20099;-53
2022/05/30 00:41:49;;;;;;;2.53;0.95;;;24.20;42.80;;;;;;5013484;28;20678;-53
2022/05/30 00:44:15;;;;;;;2.50;1.10;;;24.20;42.80;;;;;;5014043;28;20017;-53
2022/05/30 00:46:41;;;;;;;2.80;1.20;;;24.10;42.80;;;;;;5014044;28;20046;-53
2022/05/30 00:49:11;;;;;;;2.35;1.10;;;24.20;42.80;;;;;;5013602;28;20029;-53
2022/05/30 00:51:42;;;;;;;2.72;1.10;;;24.10;42.80;;;;;;5012859;28;20522;-53
2022/05/30 00:54:11;;;;;;;1.77;0.80;;;24.20;42.80;;;;;;5013656;28;20018;-53
2022/05/30 00:56:45;;;;;;;2.47;1.13;;;24.20;42.80;;;;;;5013985;28;20416;-53
2022/05/30 00:59:12;;;;;;;2.08;0.88;;;24.20;42.80;;;;;;5013231;28;20018;-53
2022/05/30 01:01:38;;;;;;;1.95;0.90;;;24.10;42.80;;;;;;5013379;28;20030;-53
2022/05/30 01:06:54;;;;;;;1.80;0.80;;;24.10;42.80;;;;;;5013633;28;20109;-54
2022/05/30 01:09:28;;;;;;;1.40;0.60;;;24.10;42.80;;;;;;5017622;28;20018;-53
2022/05/30 01:11:56;;;;;;;1.80;0.88;;;24.10;42.80;;;;;;5016483;28;20010;-52
2022/05/30 01:14:25;;;;;;;2.38;0.70;;;24.10;42.80;;;;;;5017702;28;20468;-54
2022/05/30 01:16:51;;;;;;;1.70;0.80;;;24.10;42.80;;;;;;5017219;28;20029;-53
2022/05/30 01:19:31;;;;;;;2.95;1.20;;;24.10;42.80;;;;;;5017361;28;20198;-53
2022/05/30 01:22:22;;;;;;;1.83;0.77;;;24.10;42.80;;;;;;5018482;28;20037;-54
2022/05/30 01:25:36;;;;;;;2.63;1.00;;;24.10;43.30;;;;;;5017313;28;20026;-54
2022/05/30 01:28:22;;;;;;;2.13;0.82;;;24.10;42.80;;;;;;4969059;28;20039;-54
2022/05/30 01:30:49;;;;;;;1.85;0.98;;;24.10;42.80;;;;;;5017495;28;20025;-53
2022/05/30 01:33:15;;;;;;;1.98;0.90;;;24.10;42.80;;;;;;5017161;28;20017;-53
2022/05/30 01:35:41;;;;;;;1.98;0.70;;;24.10;42.80;;;;;;5018597;28;20021;-53
2022/05/30 01:38:07;;;;;;;1.88;0.82;;;24.10;42.80;;;;;;5016376;28;20793;-54
2022/05/30 01:40:32;;;;;;;1.63;0.75;;;24.10;42.80;;;;;;5017397;28;20030;-54
2022/05/30 01:42:58;;;;;;;2.45;0.90;;;24.00;42.70;;;;;;5015702;28;20021;-53
2022/05/30 01:45:25;;;;;;;2.22;1.10;;;24.00;42.70;;;;;;5016955;28;20485;-53
2022/05/30 01:47:51;;;;;;;1.92;0.88;;;24.00;42.80;;;;;;5016805;28;20045;-53
2022/05/30 01:50:18;;;;;;;1.67;0.75;;;24.00;42.70;;;;;;5017310;28;20037;-55
2022/05/30 01:52:44;;;;;;;1.52;0.60;;;24.00;42.70;;;;;;5016432;28;20018;-53
2022/05/30 01:55:10;;;;;;;1.38;0.77;;;24.00;42.70;;;;;;5015206;28;20040;-54
2022/05/30 01:57:37;;;;;;;1.95;0.77;;;24.10;42.80;;;;;;5016662;28;20026;-53
2022/05/30 02:00:05;;;;;;;2.72;0.70;;;24.00;42.70;;;;;;5016634;28;20421;-53
2022/05/30 02:02:31;;;;;;;2.03;0.80;;;24.00;42.70;;;;;;5015933;28;20040;-53
2022/05/30 02:04:57;;;;;;;2.00;0.80;;;24.00;42.70;;;;;;5016139;28;20025;-53
2022/05/30 02:07:22;;;;;;;1.35;0.70;;;24.00;42.70;;;;;;5017140;28;20042;-52
2022/05/30 02:09:48;;;;;;;1.75;0.80;;;24.00;42.70;;;;;;5031476;28;20432;-53
2022/05/30 02:12:14;;;;;;;1.77;0.75;;;24.00;42.60;;;;;;5016327;28;20022;-53
2022/05/30 02:14:41;;;;;;;1.80;0.73;;;24.00;42.60;;;;;;5016177;28;20033;-53
2022/05/30 02:17:07;;;;;;;2.38;0.60;;;24.00;42.70;;;;;;5016244;28;20061;-54
2022/05/30 02:19:36;;;;;;;1.05;0.60;;;24.00;42.60;;;;;;5015463;28;20112;-53
2022/05/30 02:22:03;;;;;;;2.13;0.80;;;24.00;42.70;;;;;;5015465;28;20029;-53
2022/05/30 02:24:29;;;;;;;1.95;0.80;;;24.00;42.70;;;;;;5015704;28;20045;-53
2022/05/30 02:26:55;;;;;;;1.33;0.60;;;24.00;42.70;;;;;;5015479;28;20032;-53
2022/05/30 02:29:20;;;;;;;1.50;0.70;;;24.00;42.70;;;;;;5015539;28;20033;-54
2022/05/30 02:31:46;;;;;;;2.15;0.73;;;24.00;42.70;;;;;;5015299;28;20037;-53
2022/05/30 02:36:57;;;;;;;1.67;0.77;;;24.00;42.70;;;;;;5017510;28;20036;-53
2022/05/30 02:39:25;;;;;;;2.40;0.68;;;24.00;42.70;;;;;;5017011;28;20705;-53
2022/05/30 02:41:53;;;;;;;1.02;0.50;;;24.00;42.60;;;;;;5016911;28;20045;-53
2022/05/30 02:44:21;;;;;;;1.35;0.63;;;24.00;42.60;;;;;;5015370;28;20032;-53
2022/05/30 02:46:49;;;;;;;2.03;0.80;;;23.90;42.60;;;;;;5017147;28;20034;-54
2022/05/30 02:49:15;;;;;;;1.95;0.57;;;23.90;42.60;;;;;;5016899;28;20026;-54
2022/05/30 02:51:42;;;;;;;1.15;0.50;;;23.90;42.60;;;;;;5015826;28;20485;-53
2022/05/30 02:54:08;;;;;;;1.95;0.70;;;23.90;42.60;;;;;;5015327;28;20025;-53
2022/05/30 02:56:33;;;;;;;1.17;0.50;;;24.00;42.60;;;;;;5016116;28;20031;-53
2022/05/30 02:59:00;;;;;;;1.60;0.70;;;23.90;42.60;;;;;;5017995;28;20472;-54
2022/05/30 03:01:26;;;;;;;1.33;0.55;;;23.90;42.60;;;;;;5015743;28;20108;-53
2022/05/30 03:03:52;;;;;;;1.42;0.60;;;23.90;42.60;;;;;;5015263;28;20192;-52
2022/05/30 03:06:18;;;;;;;1.80;0.60;;;23.90;42.60;;;;;;5015496;28;20146;-53
2022/05/30 03:08:44;;;;;;;1.40;0.55;;;23.90;42.60;;;;;;5015291;28;20524;-53
2022/05/30 03:11:11;;;;;;;1.83;0.88;;;23.90;42.60;;;;;;5015110;28;20036;-53
2022/05/30 03:13:37;;;;;;;1.73;0.73;;;23.90;42.60;;;;;;5015260;28;20024;-53
2022/05/30 03:16:04;;;;;;;1.33;0.60;;;23.90;42.60;;;;;;5014536;28;20076;-52
2022/05/30 03:18:30;;;;;;;1.30;0.50;;;23.90;42.70;;;;;;5013224;28;20108;-53
2022/05/30 03:20:55;;;;;;;0.70;0.38;;;23.90;42.60;;;;;;5014443;28;20168;-53
2022/05/30 03:23:21;;;;;;;1.00;0.40;;;23.90;42.60;;;;;;5014508;28;20034;-53
2022/05/30 03:25:47;;;;;;;1.42;0.60;;;23.90;42.60;;;;;;5014622;28;20131;-54
2022/05/30 03:28:13;;;;;;;1.20;0.50;;;23.90;42.60;;;;;;5014374;28;20669;-53
2022/05/30 03:30:39;;;;;;;1.23;0.40;;;23.90;42.60;;;;;;5014284;28;21490;-53
2022/05/30 03:33:06;;;;;;;0.95;0.50;;;23.90;42.60;;;;;;5014153;28;20021;-54
2022/05/30 03:35:33;;;;;;;0.80;0.30;;;23.90;42.60;;;;;;5016601;28;20025;-53
2022/05/30 03:37:59;;;;;;;1.40;0.57;;;23.80;42.40;;;;;;5009140;28;20418;-53
2022/05/30 03:40:25;;;;;;;1.55;0.57;;;23.80;42.50;;;;;;5005542;28;20088;-54
2022/05/30 03:42:51;;;;;;;1.10;0.45;;;23.80;42.40;;;;;;5005109;28;20026;-54
2022/05/30 03:45:17;;;;;;;1.67;0.73;;;23.90;42.50;;;;;;5005116;28;20034;-53
2022/05/30 03:47:44;;;;;;;2.05;0.47;;;23.90;42.60;;;;;;5010447;28;20045;-53
2022/05/30 03:50:21;;;;;;;1.13;0.50;;;23.90;42.60;;;;;;5024119;28;20034;-53
2022/05/30 03:52:47;;;;;;;1.63;0.50;;;23.90;42.60;;;;;;5024624;28;20037;-53
2022/05/30 03:55:16;;;;;;;1.50;0.43;;;23.80;42.60;;;;;;5024324;28;20014;-57
2022/05/30 03:57:42;;;;;;;1.05;0.47;;;23.80;42.60;;;;;;5024748;28;20097;-54
2022/05/30 04:00:14;;;;;;;0.98;0.47;;;23.80;42.60;;;;;;5024581;28;20030;-52
2022/05/30 04:02:40;;;;;;;1.23;0.60;;;23.80;42.60;;;;;;5024389;28;20227;-53
2022/05/30 04:05:08;;;;;;;1.02;0.40;;;23.80;42.60;;;;;;5025136;28;20033;-53
2022/05/30 04:07:37;;;;;;;0.95;0.55;;;23.80;42.70;;;;;;5024635;28;20038;-53
2022/05/30 04:10:04;;;;;;;0.90;0.50;;;23.80;42.70;;;;;;5024637;28;20057;-54
2022/05/30 04:12:29;;;;;;;3.58;0.73;;;23.80;42.70;;;;;;5023988;28;20040;-53
2022/05/30 04:14:57;;;;;;;0.63;0.35;;;23.80;42.70;;;;;;5024759;28;20030;-53
2022/05/30 04:17:24;;;;;;;0.68;0.30;;;23.80;42.70;;;;;;5023722;28;20021;-53
2022/05/30 04:19:50;;;;;;;1.10;0.40;;;23.80;42.70;;;;;;5024628;28;20037;-53
2022/05/30 04:22:16;;;;;;;0.60;0.30;;;23.80;42.70;;;;;;5024407;28;20088;-53
2022/05/30 04:24:43;;;;;;;1.00;0.47;;;23.80;42.70;;;;;;5024457;28;20393;-53
2022/05/30 04:27:09;;;;;;;1.00;0.40;;;23.80;42.70;;;;;;5025088;28;20115;-53
2022/05/30 04:29:36;;;;;;;0.73;0.40;;;23.80;42.70;;;;;;5021536;28;20045;-53
2022/05/30 04:32:03;;;;;;;1.30;0.43;;;23.80;42.80;;;;;;5004201;28;20030;-53
2022/05/30 04:34:29;;;;;;;0.35;0.20;;;23.80;43.50;;;;;;5004288;28;20033;-53
2022/05/30 04:36:55;;;;;;;0.63;0.28;;;23.80;42.80;;;;;;5012781;28;20100;-53
2022/05/30 04:39:20;;;;;;;0.88;0.50;;;23.80;42.90;;;;;;5024442;28;20440;-53
2022/05/30 04:41:46;;;;;;;1.70;0.80;;;23.80;42.80;;;;;;5020270;28;20520;-52
2022/05/30 04:44:12;;;;;;;0.93;0.40;;;23.80;42.80;;;;;;5023883;28;20025;-52
2022/05/30 04:46:39;;;;;;;1.08;0.43;;;23.80;42.90;;;;;;5019281;28;20025;-53
2022/05/30 04:49:04;;;;;;;1.20;0.40;;;23.80;42.90;;;;;;5012695;28;20437;-54
2022/05/30 04:51:30;;;;;;;1.50;0.43;;;23.80;42.90;;;;;;5013703;28;20034;-53
2022/05/30 04:53:56;;;;;;;0.98;0.40;;;23.80;42.80;;;;;;5014193;28;20025;-55
2022/05/30 04:56:22;;;;;;;0.90;0.38;;;23.80;42.90;;;;;;5013383;28;20093;-56
2022/05/30 04:58:49;;;;;;;1.20;0.50;;;23.80;42.80;;;;;;5013341;28;20057;-53
2022/05/30 05:01:15;;;;;;;1.13;0.50;;;23.80;42.80;;;;;;5012936;28;20632;-53
2022/05/30 05:03:42;;;;;;;3.60;0.93;;;23.80;42.80;;;;;;5012694;28;20057;-52
2022/05/30 05:06:14;;;;;;;2.30;0.80;;;23.80;43.10;;;;;;5012515;28;20041;-53
2022/05/30 05:08:49;;;;;;;1.57;0.60;;;23.80;43.60;;;;;;5012185;28;20030;-54
2022/05/30 05:11:23;;;;;;;2.47;0.73;;;23.80;43.70;;;;;;5012595;28;20284;-53
2022/05/30 05:13:50;;;;;;;2.15;0.70;;;23.80;43.80;;;;;;5022243;28;20060;-53
2022/05/30 05:16:18;;;;;;;3.55;1.00;;;23.80;44.00;;;;;;5015951;28;20045;-54
2022/05/30 05:18:43;;;;;;;2.33;0.80;;;23.90;44.50;;;;;;5010217;28;20022;-53
2022/05/30 05:21:22;;;;;;;1.70;0.60;;;23.80;44.60;;;;;;5011260;28;20029;-53
2022/05/30 05:23:48;;;;;;;5.35;1.13;;;23.90;44.40;;;;;;5012347;28;20036;-54
2022/05/30 05:26:15;;;;;;;2.30;0.80;;;23.90;44.20;;;;;;5010224;28;20036;-52
2022/05/30 05:28:41;;;;;;;2.85;1.05;;;23.90;44.20;;;;;;5012868;28;20026;-53
2022/05/30 05:31:14;;;;;;;2.17;0.80;;;23.90;44.10;;;;;;5011713;28;20492;-53
2022/05/30 05:33:40;;;;;;;3.05;1.00;;;23.90;44.00;;;;;;5010833;28;20069;-53
2022/05/30 05:36:06;;;;;;;3.58;0.73;;;23.90;44.00;;;;;;5012162;28;20057;-54
2022/05/30 05:38:32;;;;;;;2.42;0.80;;;23.90;43.90;;;;;;5010307;28;20022;-53
2022/05/30 05:40:58;;;;;;;2.35;0.50;;;23.90;43.90;;;;;;5011951;28;20033;-53
2022/05/30 05:43:24;;;;;;;3.20;0.90;;;23.90;43.90;;;;;;5014527;28;20572;-54
2022/05/30 05:45:50;;;;;;;1.75;0.70;;;23.90;43.90;;;;;;5015781;28;20049;-53
2022/05/30 05:48:16;;;;;;;2.05;0.60;;;23.90;43.80;;;;;;5012259;28;20064;-55
2022/05/30 05:50:43;;;;;;;3.28;0.85;;;23.90;44.60;;;;;;5011024;28;20026;-54
2022/05/30 05:53:12;;;;;;;4.55;0.80;;;24.00;44.50;;;;;;5012943;28;20021;-54
2022/05/30 05:55:38;;;;;;;2.63;0.60;;;24.00;44.50;;;;;;5016132;28;20056;-53
2022/05/30 05:58:05;;;;;;;1.75;0.63;;;24.00;44.40;;;;;;5016476;28;20022;-53
2022/05/30 06:00:33;;;;;;;2.03;0.60;;;24.00;44.50;;;;;;5013877;28;20033;-55
2022/05/30 06:02:59;;;;;;;1.58;0.52;;;24.10;44.50;;;;;;5006222;28;20036;-54
2022/05/30 06:05:26;;;;;;;2.88;0.80;;;24.10;44.60;;;;;;5020862;28;20080;-52
2022/05/30 06:07:52;;;;;;;1.17;0.52;;;24.10;44.50;;;;;;5025949;28;20029;-52
2022/05/30 06:10:17;;;;;;;1.25;0.40;;;24.10;44.50;;;;;;5026288;28;20063;-52
2022/05/30 06:12:45;;;;;;;2.10;0.70;;;24.10;44.40;;;;;;5025491;28;20064;-52
2022/05/30 06:15:14;;;;;;;2.00;0.80;;;24.20;44.40;;;;;;5016978;28;20101;-52
2022/05/30 06:17:44;;;;;;;2.05;0.70;;;24.10;43.90;;;;;;5014823;28;21308;-52
2022/05/30 06:20:12;;;;;;;1.58;0.43;;;24.20;43.80;;;;;;5015093;28;20093;-51
2022/05/30 06:22:38;;;;;;;2.53;0.73;;;24.20;43.50;;;;;;5014639;28;20132;-51
2022/05/30 06:25:05;;;;;;;1.48;0.60;;;24.20;43.40;;;;;;5014863;28;20109;-52
2022/05/30 06:27:30;;;;;;;0.93;0.50;;;24.20;43.30;;;;;;5015305;28;20025;-52
2022/05/30 06:29:57;;;;;;;1.67;0.60;;;24.20;43.20;;;;;;5014666;28;20034;-51
2022/05/30 06:32:22;;;;;;;1.50;0.55;;;24.20;43.10;;;;;;5014817;28;20025;-52
2022/05/30 06:34:48;;;;;;;3.25;0.80;;;24.20;43.10;;;;;;5014502;28;20048;-55
2022/05/30 06:37:14;;;;;;;2.05;0.80;;;24.20;43.10;;;;;;5015712;28;20033;-51
2022/05/30 06:39:40;;;;;;;2.70;0.95;;;24.20;43.20;;;;;;5014370;28;20035;-51
2022/05/30 06:42:10;;;;;;;3.30;0.73;;;24.20;43.30;;;;;;5014646;28;20084;-51
2022/05/30 06:44:37;;;;;;;4.05;0.70;;;24.20;43.20;;;;;;5024482;28;20366;-51
2022/05/30 06:47:04;;;;;;;4.10;0.90;;;24.20;43.10;;;;;;5025394;28;20026;-52
2022/05/30 06:49:30;;;;;;;2.53;0.50;;;24.20;43.10;;;;;;5025735;28;20056;-51
2022/05/30 06:51:56;;;;;;;3.25;0.90;;;24.20;42.90;;;;;;5025661;28;20329;-52
2022/05/30 06:54:23;;;;;;;5.57;0.80;;;24.20;42.80;;;;;;5025703;28;20029;-52
2022/05/30 06:59:34;;;;;;;1.55;0.50;;;24.20;42.80;;;;;;5025750;28;20498;-52
2022/05/30 07:02:00;;;;;;;1.33;0.45;;;24.20;42.80;;;;;;5025684;28;20071;-51
2022/05/30 07:04:30;;;;;;;1.67;0.63;;;24.20;42.80;;;;;;5025732;28;20033;-51
2022/05/30 07:06:56;;;;;;;1.85;0.65;;;24.20;42.70;;;;;;5025119;28;20109;-52
2022/05/30 07:09:21;;;;;;;2.28;0.60;;;24.20;42.70;;;;;;5025843;28;20105;-52
2022/05/30 07:11:49;;;;;;;2.13;0.70;;;24.20;42.70;;;;;;5025423;28;20037;-53
2022/05/30 07:14:16;;;;;;;1.17;0.50;;;24.20;42.70;;;;;;5025637;28;20072;-52
2022/05/30 07:16:43;;;;;;;1.55;0.70;;;24.20;42.70;;;;;;5024278;28;20028;-52
2022/05/30 07:19:09;;;;;;;1.45;0.70;;;24.20;42.60;;;;;;5025625;28;20026;-51
2022/05/30 07:21:36;;;;;;;1.50;0.75;;;24.20;42.60;;;;;;5025511;28;20060;-51
2022/05/30 07:24:02;;;;;;;3.33;0.65;;;24.20;42.70;;;;;;5025387;28;20044;-51
2022/05/30 07:26:29;;;;;;;1.60;0.50;;;24.20;42.60;;;;;;5025552;28;20052;-52
2022/05/30 07:28:55;;;;;;;1.25;0.50;;;24.20;42.60;;;;;;5025650;28;20065;-52
2022/05/30 07:31:25;;;;;;;2.50;0.68;;;24.20;42.60;;;;;;5025260;28;20625;-51
2022/05/30 07:33:51;;;;;;;2.28;0.63;;;24.20;42.60;;;;;;5024502;28;20029;-51
2022/05/30 07:36:28;;;;;;;1.75;0.57;;;24.20;42.50;;;;;;5025125;28;20641;-52
2022/05/30 07:38:54;;;;;;;1.30;0.40;;;24.20;42.50;;;;;;5025192;28;20041;-51
2022/05/30 07:41:22;;;;;;;2.22;0.73;;;24.20;42.50;;;;;;5025157;28;20498;-52
2022/05/30 07:43:48;;;;;;;1.60;0.55;;;24.20;42.50;;;;;;5024977;28;20677;-51
2022/05/30 07:46:15;;;;;;;2.08;0.60;;;24.20;42.50;;;;;;5025519;28;20063;-51
2022/05/30 07:48:42;;;;;;;1.10;0.50;;;24.20;42.50;;;;;;5025447;28;20033;-51
2022/05/30 07:51:09;;;;;;;0.85;0.40;;;24.20;42.50;;;;;;5025197;28;20136;-52
2022/05/30 07:53:37;;;;;;;1.67;0.63;;;24.20;42.50;;;;;;5024282;28;20018;-52
2022/05/30 07:56:09;;;;;;;1.13;0.50;;;24.20;42.50;;;;;;5024427;28;20029;-52
2022/05/30 07:58:36;;;;;;;1.60;0.70;;;24.20;42.50;;;;;;5024562;28;20057;-51
2022/05/30 08:01:04;;;;;;;1.70;0.50;;;24.20;42.40;;;;;;5025073;28;20041;-51
2022/05/30 08:03:29;;;;;;;1.42;0.50;;;24.20;42.50;;;;;;5024564;28;20029;-52
2022/05/30 08:06:03;;;;;;;0.93;0.38;;;24.20;42.50;;;;;;5024591;28;20026;-52
2022/05/30 08:08:29;;;;;;;2.03;0.50;;;24.20;42.50;;;;;;5024534;28;20048;-52
2022/05/30 08:10:55;;;;;;;1.20;0.30;;;24.20;42.40;;;;;;5024152;28;20060;-52
2022/05/30 08:13:20;;;;;;;1.33;0.52;;;24.20;42.40;;;;;;5024309;28;20040;-51
2022/05/30 08:15:46;;;;;;;0.95;0.40;;;24.10;42.40;;;;;;5024179;28;20128;-52
2022/05/30 08:18:17;;;;;;;1.02;0.60;;;24.10;42.40;;;;;;5024474;28;20026;-51
2022/05/30 08:20:44;;;;;;;1.70;0.47;;;24.20;42.40;;;;;;5024292;28;20108;-51
2022/05/30 08:23:09;;;;;;;0.68;0.30;;;24.10;42.40;;;;;;5024009;28;20432;-51
2022/05/30 08:25:38;;;;;;;1.02;0.60;;;24.20;42.40;;;;;;5024335;28;20201;-51
2022/05/30 08:28:04;;;;;;;1.10;0.30;;;24.10;42.40;;;;;;5024415;28;20029;-52
2022/05/30 08:30:29;;;;;;;0.60;0.30;;;24.20;42.40;;;;;;5024331;28;20041;-52
2022/05/30 08:32:55;;;;;;;1.13;0.55;;;24.20;42.40;;;;;;5023822;28;20457;-51
2022/05/30 08:35:22;;;;;;;0.80;0.32;;;24.10;42.40;;;;;;5023382;28;20041;-51
2022/05/30 08:37:48;;;;;;;1.23;0.68;;;24.10;42.40;;;;;;5023587;28;20497;-51
2022/05/30 08:43:41;;;;;;;0.60;0.30;;;24.10;42.40;;;;;;4981302;28;20033;-52
2022/05/30 08:46:08;;;;;;;1.02;0.50;;;24.10;42.40;;;;;;4981865;28;20371;-51
2022/05/30 08:48:37;;;;;;;1.02;0.47;;;24.10;43.10;;;;;;5007926;28;20072;-51
2022/05/30 08:51:13;;;;;;;1.48;0.70;;;24.10;42.40;;;;;;5023959;28;20030;-51
2022/05/30 08:54:09;;;;;;;1.48;0.40;;;24.10;42.40;;;;;;5023399;28;20418;-51
2022/05/30 08:56:39;;;;;;;1.13;0.47;;;24.10;42.40;;;;;;5023819;28;20560;-57
2022/05/30 08:59:26;;;;;;;0.75;0.30;;;24.10;42.40;;;;;;5024191;28;20154;-51
2022/05/30 09:02:01;;;;;;;1.23;0.40;;;24.10;42.40;;;;;;5023859;28;20692;-51
2022/05/30 09:04:50;;;;;;;0.90;0.43;;;24.10;42.30;;;;;;5023830;28;20768;-51
2022/05/30 09:07:26;;;;;;;0.93;0.40;;;24.10;42.40;;;;;;5023899;28;20033;-51
2022/05/30 09:10:32;;;;;;;1.52;0.60;;;24.10;42.30;;;;;;5023365;28;20029;-51
2022/05/30 09:13:34;;;;;;;0.68;0.30;;;24.10;42.40;;;;;;5022357;28;20756;-51
2022/05/30 09:16:27;;;;;;;1.20;0.60;;;24.10;42.40;;;;;;5001266;28;20041;-51
2022/05/30 09:18:54;;;;;;;1.13;0.47;;;24.10;42.40;;;;;;5023489;28;20037;-51
2022/05/30 09:21:22;;;;;;;0.70;0.30;;;24.10;42.30;;;;;;5023809;28;20438;-51
2022/05/30 09:23:48;;;;;;;1.15;0.40;;;24.10;42.30;;;;;;5023077;28;20505;-52
2022/05/30 09:26:17;;;;;;;1.27;0.50;;;24.10;43.00;;;;;;5023999;28;20083;-51
2022/05/30 09:28:45;;;;;;;1.58;0.50;;;24.10;42.30;;;;;;5024712;28;20034;-51
2022/05/30 09:31:26;;;;;;;0.90;0.40;;;24.10;42.30;;;;;;5027852;28;20113;-51
2022/05/30 09:33:57;;;;;;;0.73;0.30;;;24.10;42.30;;;;;;5027360;28;20025;-51
2022/05/30 09:36:28;;;;;;;1.75;0.40;;;24.10;42.30;;;;;;5027354;28;20536;-51
2022/05/30 09:39:06;;;;;;;2.08;0.40;;;24.10;42.30;;;;;;5027034;28;20041;-52
2022/05/30 09:41:37;;;;;;;1.05;0.30;;;24.10;42.40;;;;;;5027869;28;20025;-51
2022/05/30 09:44:16;;;;;;;0.73;0.30;;;24.10;42.30;;;;;;5027301;28;20086;-51
2022/05/30 09:47:01;;;;;;;1.13;0.45;;;24.10;42.30;;;;;;5027325;28;20448;-51
2022/05/30 09:49:36;;;;;;;2.42;0.55;;;24.10;42.30;;;;;;5027559;28;20036;-52
2022/05/30 09:52:28;;;;;;;1.70;0.43;;;24.10;42.40;;;;;;5027293;28;20520;-52
2022/05/30 09:54:55;;;;;;;1.35;0.50;;;24.10;42.40;;;;;;5027007;28;20025;-51
2022/05/30 09:57:41;;;;;;;1.15;0.40;;;24.10;42.30;;;;;;5026958;28;20095;-51
2022/05/30 10:00:29;;;;;;;1.77;0.65;;;24.10;42.30;;;;;;5027145;28;20712;-51
2022/05/30 10:03:03;;;;;;;0.85;0.32;;;24.10;42.30;;;;;;5026994;28;20079;-51
2022/05/30 10:05:32;;;;;;;1.35;0.50;;;24.10;42.30;;;;;;5027079;28;20029;-51
2022/05/30 10:08:01;;;;;;;1.08;0.40;;;24.10;42.20;;;;;;5027156;28;20053;-51
2022/05/30 10:10:39;;;;;;;1.67;0.68;;;24.10;42.30;;;;;;5026309;28;20068;-52
2022/05/30 10:13:09;;;;;;;0.70;0.40;;;24.10;42.30;;;;;;5026752;28;20022;-51
2022/05/30 10:15:43;;;;;;;0.93;0.40;;;24.10;42.30;;;;;;5026430;28;20060;-53
2022/05/30 10:18:18;;;;;;;0.88;0.40;;;24.10;42.30;;;;;;5027093;28;20057;-51
2022/05/30 10:21:03;;;;;;;1.42;0.60;;;24.10;42.30;;;;;;5026733;28;20034;-51
2022/05/30 10:30:05;;;;;;;0.80;0.40;;;24.10;42.30;;;;;;5026160;28;20036;-51
2022/05/30 10:32:56;;;;;;;1.15;0.50;;;24.10;42.30;;;;;;5026131;28;20021;-51
2022/05/30 10:35:37;;;;;;;1.45;0.65;;;24.10;42.30;;;;;;5026507;28;20050;-51
2022/05/30 10:38:17;;;;;;;1.00;0.40;;;24.10;42.30;;;;;;5025453;28;20468;-52
2022/05/30 10:40:48;;;;;;;0.90;0.50;;;24.00;42.20;;;;;;5024773;28;20030;-51
2022/05/30 10:43:20;;;;;;;1.15;0.40;;;24.10;42.30;;;;;;5026089;28;20033;-51
2022/05/30 10:45:58;;;;;;;0.98;0.43;;;24.10;42.90;;;;;;5026276;28;20145;-52
2022/05/30 10:48:25;;;;;;;1.63;0.43;;;24.00;42.10;;;;;;5026126;28;20553;-51
2022/05/30 10:51:02;;;;;;;1.00;0.40;;;24.10;42.20;;;;;;5026005;28;20095;-51
2022/05/30 10:53:34;;;;;;;1.77;0.50;;;24.10;42.20;;;;;;5025567;28;20037;-51
2022/05/30 10:56:14;;;;;;;1.27;0.40;;;24.10;42.30;;;;;;5024311;28;20676;-51
2022/05/30 10:58:50;;;;;;;0.50;0.30;;;24.10;42.30;;;;;;5026262;28;20052;-51
2022/05/30 11:01:29;;;;;;;0.82;0.38;;;24.10;42.30;;;;;;5025736;28;20037;-51
2022/05/30 11:04:21;;;;;;;0.90;0.35;;;24.00;42.10;;;;;;5025766;28;20044;-52
2022/05/30 11:06:49;;;;;;;0.98;0.32;;;24.10;42.30;;;;;;5020624;28;20037;-52
2022/05/30 11:09:26;;;;;;;1.40;0.32;;;24.10;42.30;;;;;;5024089;28;20041;-52
2022/05/30 11:11:52;;;;;;;1.23;0.52;;;24.10;42.40;;;;;;5024757;28;20030;-51
2022/05/30 11:14:55;;;;;;;0.95;0.40;;;24.10;42.40;;;;;;5025058;28;20032;-51
2022/05/30 11:17:48;;;;;;;1.15;0.57;;;24.10;42.30;;;;;;5025298;28;20116;-51
2022/05/30 11:20:16;;;;;;;;;;;24.10;42.40;;;;;;5024945;28;20402;-51
2022/05/30 11:22:54;;;;;;;0.32;0.20;;;24.10;42.30;;;;;;5024690;28;19905;-51
2022/05/30 11:26:02;;;;;;;0.40;0.20;;;24.10;42.30;;;;;;5025042;28;20040;-51
2022/05/30 11:28:49;;;;;;;0.60;0.30;;;24.10;42.40;;;;;;5024637;28;20037;-51
2022/05/30 11:31:45;;;;;;;0.93;0.30;;;24.10;42.30;;;;;;5025185;28;20909;-51
2022/05/30 11:34:42;;;;;;;0.60;0.32;;;24.10;42.30;;;;;;5019360;28;20117;-51
2022/05/30 11:37:29;;;;;;;2.38;0.47;;;24.10;42.40;;;;;;5024905;28;20026;-51
2022/05/30 11:40:16;;;;;;;1.30;0.55;;;24.20;42.40;;;;;;5023799;28;20037;-52
2022/05/30 11:43:15;;;;;;;1.27;0.45;;;24.20;42.40;;;;;;5024686;28;20716;-51
2022/05/30 11:45:41;;;;;;;1.10;0.40;;;24.10;42.40;;;;;;5025100;28;20036;-52
2022/05/30 11:48:28;;;;;;;0.88;0.40;;;24.10;42.40;;;;;;5025031;28;20021;-51
2022/05/30 11:51:04;;;;;;;2.00;0.73;;;24.10;42.30;;;;;;5024204;28;20053;-51
2022/05/30 11:53:35;;;;;;;0.75;0.30;;;24.20;42.20;;;;;;5024385;28;20515;-52
2022/05/30 11:56:16;;;;;;;1.58;0.50;;;24.20;42.30;;;;;;5024866;28;20547;-51
2022/05/30 11:59:30;;;;;;;0.55;0.40;;;24.20;42.30;;;;;;5023408;28;20048;-52
2022/05/30 12:01:59;;;;;;;0.98;0.40;;;24.20;42.30;;;;;;5024208;28;20028;-53
2022/05/30 12:04:53;;;;;;;0.98;0.50;;;24.20;42.30;;;;;;5024305;28;20068;-51
2022/05/30 12:07:47;;;;;;;0.68;0.30;;;24.20;42.30;;;;;;5024386;28;20122;-52
2022/05/30 12:10:31;;;;;;;0.63;0.30;;;24.20;42.30;;;;;;5022408;28;20033;-52
2022/05/30 12:13:05;;;;;;;1.10;0.43;;;24.20;42.20;;;;;;5024297;28;20030;-52
2022/05/30 12:15:45;;;;;;;1.00;0.40;;;24.20;42.30;;;;;;5024326;28;20029;-51
2022/05/30 12:24:34;;;;;;;1.40;0.60;;;24.20;42.20;;;;;;5003078;28;20070;-51
2022/05/30 12:27:08;;;;;;;0.75;0.35;;;24.20;42.30;;;;;;5004739;28;20033;-52
2022/05/30 12:29:39;;;;;;;1.02;0.38;;;24.20;42.10;;;;;;5019432;28;20029;-53
2022/05/30 12:32:41;;;;;;;0.95;0.40;;;24.20;42.20;;;;;;5004243;28;20058;-52
2022/05/30 12:35:18;;;;;;;0.98;0.38;;;24.30;42.30;;;;;;5004345;28;20125;-52
2022/05/30 12:38:10;;;;;;;1.10;0.45;;;24.20;42.20;;;;;;5010317;28;20022;-51
2022/05/30 12:40:39;;;;;;;0.50;0.30;;;24.30;42.30;;;;;;5023335;28;20065;-52
2022/05/30 12:43:23;;;;;;;0.55;0.30;;;24.30;42.20;;;;;;5024038;28;20032;-51
2022/05/30 12:45:55;;;;;;;0.93;0.30;;;24.30;42.20;;;;;;5024031;28;20061;-51
2022/05/30 12:48:45;;;;;;;0.95;0.52;;;24.30;42.20;;;;;;5024046;28;20490;-51
2022/05/30 12:51:13;;;;;;;0.52;0.20;;;24.30;42.20;;;;;;5004240;28;20088;-51
2022/05/30 12:54:00;;;;;;;0.98;0.32;;;24.40;42.10;;;;;;5016996;28;20037;-51
2022/05/30 12:56:39;;;;;;;1.00;0.40;;;24.40;42.10;;;;;;5023875;28;20777;-51
2022/05/30 12:59:11;;;;;;;0.77;0.32;;;24.40;42.10;;;;;;5024316;28;20113;-51
2022/05/30 13:01:42;;;;;;;0.60;0.40;;;24.40;42.00;;;;;;5023743;28;20036;-51
2022/05/30 13:04:26;;;;;;;1.27;0.47;;;24.40;41.90;;;;;;5025952;28;20804;-51
2022/05/30 13:06:57;;;;;;;1.20;0.50;;;24.40;41.90;;;;;;5027980;28;20112;-51
2022/05/30 13:09:42;;;;;;;0.50;0.30;;;24.40;41.90;;;;;;5027663;28;20044;-51
2022/05/30 13:12:10;;;;;;;0.52;0.25;;;24.40;41.90;;;;;;5027899;28;20033;-51
2022/05/30 13:15:08;;;;;;;0.47;0.20;;;24.40;41.80;;;;;;5027147;28;20107;-51
2022/05/30 13:17:49;;;;;;;1.13;0.30;;;24.40;41.80;;;;;;5027708;28;20026;-51
2022/05/30 13:20:38;;;;;;;1.02;0.40;;;24.40;41.80;;;;;;5027267;28;20032;-51
2022/05/30 13:23:06;;;;;;;1.20;0.40;;;24.40;41.70;;;;;;5017574;28;20060;-51
2022/05/30 13:25:53;;;;;;;0.93;0.30;;;24.40;41.70;;;;;;5027290;28;20126;-51
2022/05/30 13:28:32;;;;;;;1.80;0.47;;;24.40;41.70;;;;;;5027433;28;20034;-51
2022/05/30 13:31:02;;;;;;;1.27;0.30;;;24.50;41.90;;;;;;5027075;28;20034;-51
2022/05/30 13:33:36;;;;;;;1.05;0.43;;;24.50;41.90;;;;;;5026714;28;20099;-51